Monte Vista, Colorado
Current Conditions -  °F | °C
As of 1:50 PM on Thursday 20 Nov 2014 (Local Time) from KRCV Reporting Station
Broken Clouds Broken Clouds  
Wind Chill: 39°   Ceiling: 9000
Heat Index: 42°   Visibility: 10mi
Dew Point: 10°   Wind: 5mph
Humidity: 27%   Direction: 90°E
Pressure: 30.07"   Gusts: NA
Location:  37.58°N, 106.15°W
Report Text: KRCV 202050Z AUTO 09004KT 10SM BKN090 BKN110 05/M12 A3007 RMK AO2 T00541125
Loading
Personal Weather Stations






























Interactive Weather Map New forecast layout! Learn more

10-Day Weather Forecast

Advertisements
Track Severe Weather on mobile